Time;durP1;ratioP1;P1;durP2;ratioP2;P2;SDS_P1;SDS_P2;PMS_P1;PMS_P2;Temp;Humidity;BMP_temperature;BMP_pressure;BME280_temperature;BME280_humidity;BME280_pressure;Samples;Min_cycle;Max_cycle;Signal;HPM_P1;HPM_P2
2022/03/02 00:01:14;;;;;;;4.28;3.20;;;4.60;94.20;;;;;;5066726;28;20194;-69
2022/03/02 00:03:41;;;;;;;3.67;3.28;;;4.60;94.10;;;;;;5066666;28;20233;-70
2022/03/02 00:06:09;;;;;;;5.32;4.05;;;4.60;94.00;;;;;;5066354;28;20206;-66
2022/03/02 00:08:36;;;;;;;4.15;3.80;;;4.60;93.90;;;;;;5079203;28;20720;-68
2022/03/02 00:11:04;;;;;;;12.25;4.35;;;4.60;93.90;;;;;;5073265;28;20205;-68
2022/03/02 00:13:30;;;;;;;7.70;4.10;;;4.60;94.00;;;;;;5068026;28;20318;-69
2022/03/02 00:15:57;;;;;;;9.95;4.18;;;4.60;93.90;;;;;;5078442;28;20197;-70
2022/03/02 00:18:24;;;;;;;4.63;3.35;;;4.60;94.10;;;;;;5068849;28;20681;-70
2022/03/02 00:20:50;;;;;;;3.15;2.80;;;4.60;94.10;;;;;;5077529;28;20242;-68
2022/03/02 00:23:17;;;;;;;4.95;3.80;;;4.50;93.90;;;;;;5073739;28;20219;-68
2022/03/02 00:25:44;;;;;;;4.70;4.13;;;4.50;94.20;;;;;;5073509;28;20205;-69
2022/03/02 00:28:12;;;;;;;5.32;3.72;;;4.40;94.00;;;;;;5066176;28;20798;-68
2022/03/02 00:30:38;;;;;;;3.67;3.38;;;4.40;94.20;;;;;;5071551;28;20258;-68
2022/03/02 00:33:05;;;;;;;6.63;4.25;;;4.30;94.40;;;;;;5065503;28;20231;-70
2022/03/02 00:35:32;;;;;;;6.07;4.22;;;4.20;94.60;;;;;;5068509;28;20289;-70
2022/03/02 00:37:58;;;;;;;5.07;3.38;;;4.10;94.40;;;;;;5072124;28;20194;-70
2022/03/02 00:40:25;;;;;;;4.10;3.63;;;4.10;94.60;;;;;;5070372;28;20263;-67
2022/03/02 00:42:52;;;;;;;4.45;3.25;;;4.00;94.50;;;;;;5073500;28;20263;-69
2022/03/02 00:45:20;;;;;;;3.65;3.35;;;4.00;94.40;;;;;;5066335;28;20197;-67
2022/03/02 00:47:47;;;;;;;6.07;3.97;;;4.00;94.40;;;;;;5066767;28;20217;-68
2022/03/02 00:50:15;;;;;;;5.05;3.90;;;4.00;94.70;;;;;;5066790;28;20266;-67
2022/03/02 00:52:43;;;;;;;3.95;3.50;;;4.00;94.40;;;;;;5072658;22;20727;-66
2022/03/02 00:55:10;;;;;;;5.38;3.88;;;4.00;94.60;;;;;;5062807;28;20553;-69
2022/03/02 00:57:36;;;;;;;4.72;3.65;;;4.00;94.80;;;;;;5066090;28;20190;-67
2022/03/02 01:00:05;;;;;;;6.05;3.40;;;4.00;94.80;;;;;;5066311;28;20289;-67
2022/03/02 01:02:33;;;;;;;4.03;3.67;;;4.00;94.80;;;;;;5065303;28;20201;-66
2022/03/02 01:05:00;;;;;;;3.90;2.67;;;4.00;95.20;;;;;;5066591;28;20606;-68
2022/03/02 01:07:27;;;;;;;3.42;3.13;;;4.10;95.00;;;;;;5065238;28;20286;-66
2022/03/02 01:09:54;;;;;;;3.60;3.13;;;4.00;94.80;;;;;;5062323;28;20205;-68
2022/03/02 01:12:20;;;;;;;4.85;4.35;;;4.10;95.20;;;;;;5064588;28;20206;-66
2022/03/02 01:14:47;;;;;;;3.95;2.90;;;4.10;95.00;;;;;;5067778;28;20698;-68
2022/03/02 01:17:14;;;;;;;3.28;2.97;;;4.10;94.90;;;;;;5069380;28;20658;-67
2022/03/02 01:19:42;;;;;;;4.07;3.70;;;4.10;94.90;;;;;;5061334;28;20253;-67
2022/03/02 01:22:08;;;;;;;4.10;3.45;;;4.00;95.10;;;;;;5069485;28;20206;-68
2022/03/02 01:24:35;;;;;;;5.97;4.00;;;4.00;95.00;;;;;;5068947;28;20256;-66
2022/03/02 01:27:02;;;;;;;4.10;3.65;;;4.00;94.90;;;;;;5059307;28;20271;-69
2022/03/02 01:29:30;;;;;;;3.67;2.55;;;4.00;94.90;;;;;;5061492;28;20202;-66
2022/03/02 01:31:56;;;;;;;3.85;3.42;;;3.90;95.00;;;;;;5066509;28;20671;-65
2022/03/02 01:34:23;;;;;;;3.63;3.17;;;3.90;95.30;;;;;;5068471;28;20276;-67
2022/03/02 01:36:51;;;;;;;4.78;4.47;;;3.80;95.30;;;;;;5064183;28;20201;-67
2022/03/02 01:39:18;;;;;;;5.00;3.42;;;3.80;95.40;;;;;;5060755;28;20667;-66
2022/03/02 01:41:45;;;;;;;3.30;3.00;;;3.70;95.70;;;;;;5061756;28;20251;-68
2022/03/02 01:44:12;;;;;;;8.02;4.05;;;3.60;95.80;;;;;;5068639;28;20221;-66
2022/03/02 01:46:39;;;;;;;5.88;4.03;;;3.60;96.20;;;;;;5063475;28;20213;-66
2022/03/02 01:49:06;;;;;;;5.45;4.45;;;3.50;95.90;;;;;;5068582;28;20217;-68
2022/03/02 01:51:33;;;;;;;3.88;2.28;;;3.50;95.90;;;;;;5069420;28;20682;-66
2022/03/02 01:54:02;;;;;;;4.70;4.18;;;3.50;95.70;;;;;;5069478;28;20263;-68
2022/03/02 01:56:28;;;;;;;4.53;3.88;;;3.50;95.80;;;;;;5069649;28;20201;-68
2022/03/02 01:58:55;;;;;;;6.43;3.72;;;3.50;95.50;;;;;;5069047;28;20196;-67
2022/03/02 02:01:22;;;;;;;4.43;4.03;;;3.50;95.60;;;;;;5064769;28;20198;-66
2022/03/02 02:03:49;;;;;;;3.60;2.85;;;3.50;95.60;;;;;;5049266;28;20476;-67
2022/03/02 02:06:15;;;;;;;3.58;3.08;;;3.50;95.60;;;;;;5066485;28;20617;-67
2022/03/02 02:08:43;;;;;;;10.60;4.10;;;3.40;95.50;;;;;;5066296;28;20968;-67
2022/03/02 02:11:13;;;;;;;4.65;4.03;;;3.40;95.60;;;;;;5073475;28;20266;-67
2022/03/02 02:13:40;;;;;;;5.20;3.65;;;3.40;95.70;;;;;;5068417;28;20225;-66
2022/03/02 02:16:08;;;;;;;6.32;3.97;;;3.30;95.90;;;;;;5068809;28;20267;-68
2022/03/02 02:18:36;;;;;;;3.03;2.72;;;3.30;96.30;;;;;;5069629;28;20200;-67
2022/03/02 02:21:05;;;;;;;3.92;3.53;;;3.30;96.30;;;;;;5068067;28;20212;-66
2022/03/02 02:23:31;;;;;;;6.15;4.43;;;3.20;96.30;;;;;;5067873;28;20212;-68
2022/03/02 02:25:58;;;;;;;4.20;3.67;;;3.10;96.70;;;;;;5069175;28;20244;-66
2022/03/02 02:28:31;;;;;;;4.70;4.00;;;3.00;96.70;;;;;;5069050;28;20225;-68
2022/03/02 02:30:59;;;;;;;3.15;2.92;;;3.00;96.70;;;;;;5068280;28;20251;-69
2022/03/02 02:33:27;;;;;;;6.30;4.28;;;2.90;97.10;;;;;;5068264;28;20757;-69
2022/03/02 02:35:54;;;;;;;8.48;2.97;;;2.80;97.60;;;;;;5068277;28;20574;-66
2022/03/02 02:38:23;;;;;;;6.18;4.45;;;2.70;97.60;;;;;;5058260;28;20249;-67
2022/03/02 02:40:50;;;;;;;3.90;2.58;;;2.70;98.00;;;;;;5063112;28;20247;-67
2022/03/02 02:43:18;;;;;;;4.25;3.35;;;2.70;97.60;;;;;;5066513;28;20266;-66
2022/03/02 02:45:45;;;;;;;4.47;4.07;;;2.70;97.20;;;;;;5056511;28;20233;-67
2022/03/02 02:48:12;;;;;;;4.15;3.25;;;2.70;96.90;;;;;;5061605;28;20769;-69
2022/03/02 02:50:39;;;;;;;4.55;2.95;;;2.70;97.00;;;;;;5067066;28;20205;-69
2022/03/02 02:53:10;;;;;;;3.97;3.58;;;2.70;97.20;;;;;;5066710;28;20969;-67
2022/03/02 02:55:41;;;;;;;4.03;3.60;;;2.80;97.80;;;;;;5067613;28;20254;-67
2022/03/02 02:58:08;;;;;;;5.53;4.40;;;2.80;97.70;;;;;;5067734;28;20189;-68
2022/03/02 03:00:38;;;;;;;5.50;3.20;;;2.80;97.70;;;;;;5064253;28;20259;-67
2022/03/02 03:03:05;;;;;;;6.20;4.40;;;2.80;97.80;;;;;;5063542;28;20217;-68
2022/03/02 03:05:33;;;;;;;5.00;3.42;;;2.80;97.70;;;;;;5065901;28;20285;-67
2022/03/02 03:08:01;;;;;;;4.65;3.33;;;2.80;97.60;;;;;;5068166;28;20220;-67
2022/03/02 03:10:28;;;;;;;3.00;2.70;;;2.80;97.70;;;;;;5067894;28;20804;-69
2022/03/02 03:12:56;;;;;;;4.05;3.60;;;2.80;97.70;;;;;;5063624;28;20201;-68
2022/03/02 03:15:23;;;;;;;3.15;2.58;;;2.90;97.40;;;;;;5061538;28;20205;-67
2022/03/02 03:17:51;;;;;;;4.97;4.20;;;3.00;97.30;;;;;;5067387;28;20197;-67
2022/03/02 03:20:20;;;;;;;7.18;3.28;;;3.10;97.30;;;;;;5067647;28;20197;-67
2022/03/02 03:22:47;;;;;;;3.47;2.65;;;3.20;97.30;;;;;;5058996;28;20476;-67
2022/03/02 03:25:15;;;;;;;7.97;3.67;;;3.20;97.50;;;;;;5062630;28;20228;-67
2022/03/02 03:27:43;;;;;;;3.55;3.25;;;3.20;97.80;;;;;;5056266;28;20654;-67
2022/03/02 03:30:13;;;;;;;5.03;3.70;;;3.20;97.90;;;;;;5066871;28;20209;-67
2022/03/02 03:32:40;;;;;;;4.95;4.18;;;3.30;97.90;;;;;;5059407;28;20309;-68
2022/03/02 03:35:09;;;;;;;5.07;3.53;;;3.30;97.90;;;;;;5066910;28;20667;-67
2022/03/02 03:37:36;;;;;;;4.00;3.70;;;3.30;97.80;;;;;;5066840;28;20201;-68
2022/03/02 03:40:04;;;;;;;4.53;3.78;;;3.30;97.70;;;;;;5059227;28;20655;-69
2022/03/02 03:42:30;;;;;;;4.47;3.22;;;3.30;97.90;;;;;;5065894;28;20205;-67
2022/03/02 03:44:57;;;;;;;2.80;2.40;;;3.30;97.70;;;;;;5066559;28;20221;-67
2022/03/02 03:47:25;;;;;;;5.82;3.90;;;3.30;97.80;;;;;;5066438;28;20206;-66
2022/03/02 03:49:51;;;;;;;4.32;3.58;;;3.30;97.90;;;;;;5066504;28;20197;-67
2022/03/02 03:52:18;;;;;;;3.42;3.03;;;3.30;98.10;;;;;;5066976;28;20193;-67
2022/03/02 03:54:45;;;;;;;4.50;3.38;;;3.30;98.10;;;;;;5066303;28;20242;-67
2022/03/02 03:57:11;;;;;;;3.53;2.88;;;3.30;97.90;;;;;;5058991;28;20251;-66
2022/03/02 03:59:38;;;;;;;8.38;3.33;;;3.30;98.10;;;;;;5065978;28;20190;-68
2022/03/02 04:02:05;;;;;;;3.47;3.17;;;3.30;98.10;;;;;;5066089;28;20197;-68
2022/03/02 04:04:34;;;;;;;4.35;3.92;;;3.30;98.30;;;;;;5065904;28;20941;-68
2022/03/02 04:07:00;;;;;;;5.68;4.60;;;3.30;98.10;;;;;;5066497;28;20201;-66
2022/03/02 04:09:27;;;;;;;3.75;3.45;;;3.40;98.20;;;;;;5066672;28;20236;-68
2022/03/02 04:11:54;;;;;;;4.43;3.97;;;3.40;98.00;;;;;;5061257;28;20205;-67
2022/03/02 04:14:20;;;;;;;4.25;3.95;;;3.50;97.90;;;;;;5064902;28;20223;-67
2022/03/02 04:16:47;;;;;;;8.60;4.63;;;3.50;97.70;;;;;;5066125;28;20205;-68
2022/03/02 04:19:13;;;;;;;3.67;3.28;;;3.60;97.90;;;;;;5065288;28;20193;-67
2022/03/02 04:21:42;;;;;;;2.92;2.70;;;3.60;97.60;;;;;;5062942;28;20259;-67
2022/03/02 04:24:08;;;;;;;5.25;4.50;;;3.60;97.60;;;;;;5048069;28;20294;-67
2022/03/02 04:26:35;;;;;;;8.13;2.97;;;3.60;97.70;;;;;;5064373;28;20331;-68
2022/03/02 04:29:02;;;;;;;4.60;3.47;;;3.60;97.90;;;;;;5059887;28;20221;-68
2022/03/02 04:31:28;;;;;;;4.10;3.70;;;3.70;97.90;;;;;;5062735;28;20201;-68
2022/03/02 04:33:56;;;;;;;7.15;3.65;;;3.70;97.90;;;;;;5064675;28;20277;-67
2022/03/02 04:36:22;;;;;;;5.80;3.25;;;3.70;98.10;;;;;;5065474;28;20207;-69
2022/03/02 04:38:50;;;;;;;5.90;4.00;;;3.70;98.10;;;;;;5064950;28;20621;-69
2022/03/02 04:41:17;;;;;;;5.03;4.13;;;3.70;98.20;;;;;;5073611;28;20258;-68
2022/03/02 04:43:45;;;;;;;6.05;5.07;;;3.70;98.00;;;;;;5072930;28;20221;-67
2022/03/02 04:46:12;;;;;;;5.55;3.78;;;3.70;98.10;;;;;;5067586;28;20736;-67
2022/03/02 04:48:39;;;;;;;6.85;4.53;;;3.70;98.20;;;;;;5086259;28;20214;-67
2022/03/02 04:51:05;;;;;;;3.55;3.25;;;3.70;98.20;;;;;;5080727;28;20194;-67
2022/03/02 04:53:32;;;;;;;4.10;3.73;;;3.70;98.30;;;;;;5025794;28;1056962;-67
2022/03/02 04:56:00;;;;;;;3.47;3.17;;;3.70;98.40;;;;;;5070963;28;20504;-67
2022/03/02 04:58:27;;;;;;;4.00;3.25;;;3.70;98.40;;;;;;5068887;28;20190;-67
2022/03/02 05:00:53;;;;;;;4.80;3.28;;;3.70;98.50;;;;;;5073991;28;20254;-68
2022/03/02 05:03:20;;;;;;;2.90;2.70;;;3.70;98.30;;;;;;5081224;28;20225;-68
2022/03/02 05:05:47;;;;;;;11.25;5.18;;;3.70;98.40;;;;;;5070966;28;20203;-66
2022/03/02 05:08:14;;;;;;;5.00;4.40;;;3.70;98.40;;;;;;5070767;28;20224;-66
2022/03/02 05:10:41;;;;;;;6.93;5.00;;;3.70;98.70;;;;;;5071145;28;20270;-67
2022/03/02 05:13:09;;;;;;;3.85;3.53;;;3.70;98.40;;;;;;5070932;28;20293;-67
2022/03/02 05:15:36;;;;;;;3.60;2.70;;;3.70;98.50;;;;;;5070976;28;20681;-67
2022/03/02 05:18:03;;;;;;;4.70;3.25;;;3.60;98.40;;;;;;5070795;28;20211;-67
2022/03/02 05:20:29;;;;;;;4.82;2.97;;;3.70;98.40;;;;;;5070446;28;20203;-68
2022/03/02 05:22:56;;;;;;;4.45;3.10;;;3.60;98.50;;;;;;5070094;28;20282;-69
2022/03/02 05:25:24;;;;;;;6.07;4.47;;;3.60;98.60;;;;;;5068960;28;20727;-70
2022/03/02 05:27:51;;;;;;;5.75;5.15;;;3.60;98.70;;;;;;5064205;28;20202;-69
2022/03/02 05:30:20;;;;;;;6.47;4.43;;;3.60;98.80;;;;;;5070743;28;20221;-69
2022/03/02 05:32:47;;;;;;;7.63;4.35;;;3.60;98.80;;;;;;5066370;28;20285;-69
2022/03/02 05:35:14;;;;;;;6.18;3.90;;;3.60;98.80;;;;;;5069202;28;20228;-69
2022/03/02 05:37:43;;;;;;;3.60;3.30;;;3.60;98.60;;;;;;5069934;28;20208;-69
2022/03/02 05:40:13;;;;;;;4.90;4.50;;;3.60;98.60;;;;;;5069736;28;20918;-68
2022/03/02 05:42:39;;;;;;;3.97;3.47;;;3.60;98.90;;;;;;5068316;28;20202;-69
2022/03/02 05:45:08;;;;;;;3.88;3.53;;;3.60;98.80;;;;;;5057366;28;20259;-68
2022/03/02 05:47:37;;;;;;;3.22;2.92;;;3.60;99.20;;;;;;5068561;28;20284;-69
2022/03/02 05:50:05;;;;;;;4.13;3.72;;;3.60;99.20;;;;;;5069444;28;20275;-68
2022/03/02 05:52:32;;;;;;;3.55;3.25;;;3.60;99.00;;;;;;5065784;28;20251;-68
2022/03/02 05:54:58;;;;;;;8.07;3.38;;;3.60;99.00;;;;;;5067272;28;20229;-68
2022/03/02 05:57:25;;;;;;;9.10;3.53;;;3.60;99.00;;;;;;5067791;28;20690;-68
2022/03/02 05:59:52;;;;;;;4.88;4.10;;;3.60;98.90;;;;;;5066481;28;20267;-69
2022/03/02 06:02:19;;;;;;;6.70;4.40;;;3.60;99.10;;;;;;5067430;28;20298;-68
2022/03/02 06:04:47;;;;;;;4.43;4.13;;;3.60;99.10;;;;;;5065087;28;20226;-68
2022/03/02 06:07:14;;;;;;;4.10;3.22;;;3.60;99.20;;;;;;5065265;28;20247;-68
2022/03/02 06:09:41;;;;;;;4.50;4.10;;;3.60;99.20;;;;;;5067614;28;20245;-69
2022/03/02 06:12:09;;;;;;;6.68;4.00;;;3.60;99.40;;;;;;5065746;28;20200;-71
2022/03/02 06:14:37;;;;;;;3.50;3.20;;;3.60;99.40;;;;;;5067530;28;20226;-69
2022/03/02 06:17:04;;;;;;;5.75;4.70;;;3.50;99.70;;;;;;5068835;28;20246;-68
2022/03/02 06:19:31;;;;;;;6.30;3.50;;;3.50;99.80;;;;;;5069137;28;20885;-68
2022/03/02 06:22:02;;;;;;;4.65;3.40;;;3.50;99.50;;;;;;5067243;28;20197;-67
2022/03/02 06:24:29;;;;;;;4.03;3.67;;;3.50;99.70;;;;;;5069130;28;20221;-68
2022/03/02 06:26:55;;;;;;;4.78;3.47;;;3.50;99.70;;;;;;5068478;28;20209;-67
2022/03/02 06:29:22;;;;;;;4.88;4.53;;;3.50;99.80;;;;;;5065702;28;20220;-68
2022/03/02 06:31:50;;;;;;;5.15;3.38;;;3.60;99.90;;;;;;5070228;28;20202;-69
2022/03/02 06:34:16;;;;;;;5.28;2.60;;;3.60;99.90;;;;;;5067020;28;20222;-70
2022/03/02 06:36:43;;;;;;;3.95;3.35;;;3.60;99.90;;;;;;5064606;28;20823;-70
2022/03/02 06:39:11;;;;;;;4.57;2.95;;;3.60;99.90;;;;;;5067551;28;20681;-69
2022/03/02 06:41:47;;;;;;;4.20;3.10;;;3.60;99.90;;;;;;5068747;28;20198;-71
2022/03/02 06:44:21;;;;;;;6.03;3.40;;;3.60;99.90;;;;;;5065068;28;20760;-70
2022/03/02 06:46:55;;;;;;;5.82;2.95;;;3.60;99.90;;;;;;5061491;28;20201;-70
2022/03/02 06:49:26;;;;;;;5.90;3.85;;;3.60;99.90;;;;;;5068004;28;20213;-70
2022/03/02 06:51:58;;;;;;;5.07;3.75;;;3.60;99.90;;;;;;5059424;28;20205;-68
2022/03/02 06:54:29;;;;;;;5.00;3.95;;;3.60;99.90;;;;;;5064066;28;20283;-69
2022/03/02 06:56:59;;;;;;;3.58;3.25;;;3.70;99.90;;;;;;5068495;28;20208;-70
2022/03/02 06:59:31;;;;;;;5.55;3.40;;;3.70;99.90;;;;;;5067389;28;20590;-69
2022/03/02 07:02:03;;;;;;;4.45;3.38;;;3.70;99.90;;;;;;5067563;28;20305;-70
2022/03/02 07:04:37;;;;;;;3.83;3.45;;;3.70;99.90;;;;;;5064092;28;20221;-69
2022/03/02 07:07:04;;;;;;;4.13;3.65;;;3.70;99.90;;;;;;5067071;28;20916;-69
2022/03/02 07:09:34;;;;;;;5.85;3.42;;;3.70;99.90;;;;;;5068205;28;20695;-69
2022/03/02 07:12:01;;;;;;;4.55;3.35;;;3.70;99.90;;;;;;5067745;28;20287;-69
2022/03/02 07:14:30;;;;;;;4.88;3.70;;;3.70;99.90;;;;;;5058063;28;20218;-69
2022/03/02 07:16:58;;;;;;;4.53;4.13;;;3.80;99.90;;;;;;5048326;28;20284;-70
2022/03/02 07:19:24;;;;;;;4.80;3.30;;;3.80;99.90;;;;;;5060487;28;20198;-70
2022/03/02 07:21:52;;;;;;;3.28;3.03;;;3.80;99.90;;;;;;5062544;28;20204;-69
2022/03/02 07:24:22;;;;;;;4.70;4.00;;;3.80;99.90;;;;;;5064419;28;20221;-68
2022/03/02 07:26:54;;;;;;;5.93;3.00;;;3.80;99.90;;;;;;5062355;28;21580;-68
2022/03/02 07:29:23;;;;;;;4.50;3.25;;;3.90;99.90;;;;;;5052033;28;20225;-69
2022/03/02 07:31:51;;;;;;;3.42;3.13;;;3.90;99.90;;;;;;5059074;28;20197;-68
2022/03/02 07:34:19;;;;;;;5.00;3.50;;;4.00;99.90;;;;;;5061658;28;20228;-68
2022/03/02 07:36:46;;;;;;;5.05;4.45;;;4.00;99.90;;;;;;5056021;28;20206;-69
2022/03/02 07:39:13;;;;;;;3.67;3.38;;;4.00;99.90;;;;;;5066435;28;20197;-69
2022/03/02 07:41:39;;;;;;;4.88;3.53;;;4.10;99.90;;;;;;5064967;28;20299;-70
2022/03/02 07:44:08;;;;;;;4.32;4.03;;;4.20;99.90;;;;;;5081602;22;20308;-66
2022/03/02 07:46:35;;;;;;;6.88;4.25;;;4.20;99.90;;;;;;5061583;28;20299;-70
2022/03/02 07:49:03;;;;;;;6.00;3.95;;;4.30;99.90;;;;;;5062547;28;20201;-66
2022/03/02 07:51:33;;;;;;;4.25;3.78;;;4.40;99.90;;;;;;5063142;28;20197;-69
2022/03/02 07:54:02;;;;;;;5.40;3.60;;;4.60;99.90;;;;;;5063645;28;20297;-68
2022/03/02 07:56:31;;;;;;;4.28;3.72;;;4.70;99.90;;;;;;5060695;28;20824;-68
2022/03/02 07:59:02;;;;;;;3.70;3.40;;;4.80;99.90;;;;;;5064811;28;20201;-66
2022/03/02 08:01:34;;;;;;;8.07;3.63;;;4.90;99.90;;;;;;5064120;28;20216;-69
2022/03/02 08:04:04;;;;;;;3.75;3.35;;;5.10;99.90;;;;;;5055899;28;20314;-68
2022/03/02 08:06:31;;;;;;;4.53;3.75;;;5.20;99.90;;;;;;5064541;28;20193;-68
2022/03/02 08:08:59;;;;;;;5.55;4.07;;;5.30;99.60;;;;;;5062420;28;20286;-69
2022/03/02 08:11:26;;;;;;;4.63;3.47;;;5.40;99.50;;;;;;5062052;28;20270;-63
2022/03/02 08:13:52;;;;;;;4.60;3.67;;;5.50;99.60;;;;;;5061832;28;20218;-63
2022/03/02 08:16:19;;;;;;;4.70;4.30;;;5.80;99.50;;;;;;5062809;28;20201;-62
2022/03/02 08:18:47;;;;;;;7.40;5.32;;;6.00;98.90;;;;;;5063039;28;20300;-63
2022/03/02 08:21:19;;;;;;;5.00;4.10;;;6.20;98.60;;;;;;5062313;28;20276;-66
2022/03/02 08:23:49;;;;;;;5.60;4.30;;;6.30;97.70;;;;;;5049231;28;20305;-68
2022/03/02 08:26:20;;;;;;;4.80;4.22;;;6.40;97.60;;;;;;5060861;28;20259;-71
2022/03/02 08:28:47;;;;;;;3.40;3.10;;;6.40;97.20;;;;;;5064873;28;20271;-70
2022/03/02 08:31:14;;;;;;;3.35;3.05;;;6.40;97.40;;;;;;5068823;28;20275;-70
2022/03/02 08:33:42;;;;;;;4.35;3.53;;;6.30;96.90;;;;;;5055023;28;20636;-70
2022/03/02 08:36:12;;;;;;;4.50;4.07;;;6.40;96.70;;;;;;5070133;28;20208;-70
2022/03/02 08:38:42;;;;;;;4.50;3.80;;;6.50;96.90;;;;;;5072447;28;20202;-72
2022/03/02 08:41:10;;;;;;;5.50;4.18;;;6.70;96.50;;;;;;5071014;28;20332;-71
2022/03/02 08:43:37;;;;;;;4.18;3.38;;;7.00;96.80;;;;;;5067134;28;20192;-71
2022/03/02 08:46:05;;;;;;;4.15;3.83;;;7.30;96.70;;;;;;5058734;28;20562;-70
2022/03/02 08:48:32;;;;;;;3.97;3.50;;;7.50;95.40;;;;;;5062977;28;20197;-70
2022/03/02 08:51:00;;;;;;;3.97;3.30;;;7.60;95.10;;;;;;5062817;28;20254;-70
2022/03/02 08:53:29;;;;;;;4.88;4.38;;;7.80;94.90;;;;;;5062495;28;20209;-70
2022/03/02 08:55:59;;;;;;;4.50;4.15;;;8.00;95.20;;;;;;5062093;28;20208;-71
2022/03/02 08:58:26;;;;;;;5.78;5.18;;;8.20;94.40;;;;;;5064864;28;20208;-70
2022/03/02 09:00:54;;;;;;;4.20;3.80;;;8.30;94.50;;;;;;5060214;28;20208;-71
2022/03/02 09:03:23;;;;;;;3.85;3.55;;;8.50;93.80;;;;;;5054451;28;20216;-70
2022/03/02 09:05:50;;;;;;;4.25;3.95;;;8.50;92.90;;;;;;5063371;28;20273;-70
2022/03/02 09:08:17;;;;;;;7.68;4.50;;;8.60;92.70;;;;;;5060289;28;20861;-70
2022/03/02 09:10:46;;;;;;;4.97;4.47;;;8.60;92.90;;;;;;5062993;28;20216;-70
2022/03/02 09:13:13;;;;;;;5.85;5.07;;;8.60;93.10;;;;;;5061576;28;20205;-70
2022/03/02 09:15:40;;;;;;;5.47;4.23;;;8.70;93.50;;;;;;5063553;28;20249;-70
2022/03/02 09:18:08;;;;;;;5.00;4.10;;;8.70;93.90;;;;;;5065171;28;20959;-70
2022/03/02 09:20:35;;;;;;;5.13;4.45;;;8.80;93.70;;;;;;5060613;28;20510;-71
2022/03/02 09:23:04;;;;;;;5.50;4.63;;;8.80;93.70;;;;;;5062430;28;20212;-70
2022/03/02 09:25:32;;;;;;;5.05;4.60;;;8.90;93.80;;;;;;5062120;28;20499;-71
2022/03/02 09:28:00;;;;;;;5.22;4.15;;;9.10;93.70;;;;;;5064203;28;20237;-71
2022/03/02 09:30:27;;;;;;;4.75;4.35;;;9.40;94.10;;;;;;5061992;28;20232;-71
2022/03/02 09:32:55;;;;;;;4.18;3.78;;;9.40;92.80;;;;;;5069955;28;20212;-71
2022/03/02 09:35:23;;;;;;;4.80;4.30;;;9.40;92.60;;;;;;5066946;28;20252;-70
2022/03/02 09:37:53;;;;;;;4.43;3.70;;;9.50;92.60;;;;;;5072365;28;20611;-72
2022/03/02 09:40:25;;;;;;;4.50;4.10;;;9.70;92.70;;;;;;5059889;28;21219;-72
2022/03/02 09:42:58;;;;;;;5.33;4.93;;;9.70;92.20;;;;;;5063987;28;20470;-72
2022/03/02 09:45:27;;;;;;;5.27;3.60;;;9.90;92.20;;;;;;5074351;28;20618;-73
2022/03/02 09:47:57;;;;;;;4.30;3.90;;;10.00;91.80;;;;;;5063485;28;21019;-73
2022/03/02 09:50:25;;;;;;;4.73;4.07;;;10.30;91.70;;;;;;5063962;28;20976;-72
2022/03/02 09:52:55;;;;;;;6.07;4.53;;;10.40;90.50;;;;;;5065312;28;20447;-72
2022/03/02 09:55:24;;;;;;;5.47;4.67;;;10.20;90.50;;;;;;5065558;28;20467;-73
2022/03/02 09:57:53;;;;;;;5.13;4.63;;;10.10;90.80;;;;;;5066466;28;20455;-72
2022/03/02 10:00:21;;;;;;;4.63;4.27;;;10.00;91.20;;;;;;5065931;28;20530;-71
2022/03/02 10:02:52;;;;;;;5.80;4.53;;;10.30;91.30;;;;;;5058905;28;20513;-71
2022/03/02 10:05:21;;;;;;;5.43;4.43;;;10.60;91.30;;;;;;5079056;28;20557;-72
2022/03/02 10:07:58;;;;;;;7.00;4.33;;;10.80;90.50;;;;;;5085220;28;20539;-72
2022/03/02 10:10:26;;;;;;;5.20;4.70;;;11.00;91.10;;;;;;5065021;28;20563;-72
2022/03/02 10:12:56;;;;;;;4.50;4.10;;;11.40;90.80;;;;;;5064641;28;20475;-71
2022/03/02 10:15:23;;;;;;;8.80;5.23;;;11.60;90.00;;;;;;5065453;28;20607;-72
2022/03/02 10:17:54;;;;;;;4.70;4.10;;;11.40;90.10;;;;;;5068403;28;20520;-72
2022/03/02 10:20:25;;;;;;;5.30;4.80;;;11.50;90.00;;;;;;5063611;28;20466;-72
2022/03/02 10:23:18;;;;;;;5.60;4.83;;;11.60;89.60;;;;;;5080613;28;20458;-72
2022/03/02 10:26:01;;;;;;;5.03;4.53;;;11.60;88.70;;;;;;5065355;28;20452;-70
2022/03/02 10:28:30;;;;;;;7.77;4.53;;;11.80;88.60;;;;;;5061208;28;20455;-71
2022/03/02 10:31:19;;;;;;;5.50;4.33;;;11.90;89.20;;;;;;5055812;28;20520;-71
2022/03/02 10:33:52;;;;;;;6.13;4.87;;;12.20;88.10;;;;;;5054826;28;20560;-71
2022/03/02 10:36:21;;;;;;;6.00;5.00;;;12.30;86.90;;;;;;5058824;28;20467;-71
2022/03/02 10:38:50;;;;;;;5.40;4.90;;;12.50;87.50;;;;;;5055318;28;20455;-70
2022/03/02 10:41:21;;;;;;;6.87;4.50;;;12.70;87.40;;;;;;5057677;28;20542;-71
2022/03/02 10:43:53;;;;;;;7.53;6.93;;;12.90;86.00;;;;;;5066821;28;20477;-75
2022/03/02 10:46:23;;;;;;;7.00;3.97;;;12.90;86.30;;;;;;5080154;28;20454;-71
2022/03/02 10:49:05;;;;;;;5.40;3.80;;;13.10;85.60;;;;;;5069968;28;20994;-73
2022/03/02 10:51:34;;;;;;;5.03;4.53;;;13.10;84.40;;;;;;5086692;28;20544;-72
2022/03/02 10:54:03;;;;;;;4.33;4.00;;;13.10;84.80;;;;;;5071427;28;20493;-72
2022/03/02 10:56:35;;;;;;;5.00;4.37;;;13.20;84.60;;;;;;5069745;28;20463;-72
2022/03/02 10:59:04;;;;;;;4.77;4.37;;;13.40;84.00;;;;;;5081654;28;21003;-72
2022/03/02 11:01:31;;;;;;;6.27;4.60;;;13.70;82.50;;;;;;5069045;28;20520;-72
2022/03/02 11:03:59;;;;;;;5.10;4.60;;;13.80;80.70;;;;;;5055917;28;20479;-71
2022/03/02 11:06:27;;;;;;;5.27;4.80;;;13.90;80.40;;;;;;5057264;28;20467;-71
2022/03/02 11:08:55;;;;;;;4.77;4.23;;;13.90;79.80;;;;;;5055477;28;20561;-70
2022/03/02 11:11:26;;;;;;;5.53;5.03;;;13.90;80.00;;;;;;5055493;28;20479;-71
2022/03/02 11:13:55;;;;;;;5.33;4.23;;;14.00;80.60;;;;;;5067381;28;20573;-70
2022/03/02 11:16:24;;;;;;;4.63;4.23;;;14.10;79.70;;;;;;5058303;28;21289;-71
2022/03/02 11:18:52;;;;;;;4.33;3.93;;;14.20;76.00;;;;;;5070825;28;20831;-69
2022/03/02 11:21:24;;;;;;;4.73;4.23;;;14.20;76.90;;;;;;5071071;28;20577;-65
2022/03/02 11:23:53;;;;;;;4.37;4.00;;;14.30;82.10;;;;;;5058046;28;20541;-65
2022/03/02 11:26:23;;;;;;;4.07;3.67;;;14.50;83.90;;;;;;5064024;28;21009;-64
2022/03/02 11:28:53;;;;;;;4.57;4.03;;;14.80;86.60;;;;;;5060533;28;20491;-64
2022/03/02 11:31:24;;;;;;;5.33;3.80;;;15.20;80.30;;;;;;5055266;28;20564;-62
2022/03/02 11:33:51;;;;;;;5.00;4.60;;;15.60;83.10;;;;;;5056360;28;20545;-65
2022/03/02 11:36:20;;;;;;;3.90;3.60;;;16.00;79.60;;;;;;5066246;28;20537;-67
2022/03/02 11:38:53;;;;;;;4.67;3.77;;;16.30;79.40;;;;;;5078315;28;20799;-72
2022/03/02 11:41:33;;;;;;;278.30;257.20;;;16.50;74.10;;;;;;5058238;28;20532;-73
2022/03/02 11:44:00;;;;;;;339.48;312.95;;;16.70;74.10;;;;;;5056108;28;20228;-70
2022/03/02 11:46:26;;;;;;;6.43;4.70;;;16.80;71.80;;;;;;5061951;28;21111;-72
2022/03/02 11:48:53;;;;;;;4.13;3.47;;;17.30;72.10;;;;;;5067253;28;20462;-69
2022/03/02 11:51:23;;;;;;;3.87;3.57;;;17.70;69.90;;;;;;5059617;28;20516;-69
2022/03/02 11:53:52;;;;;;;8.80;4.27;;;18.10;67.50;;;;;;5063951;28;20578;-69
2022/03/02 11:56:21;;;;;;;3.70;2.60;;;18.40;67.20;;;;;;5064305;28;20473;-69
2022/03/02 11:59:03;;;;;;;4.90;3.27;;;18.50;63.10;;;;;;5062254;28;20499;-71
2022/03/02 12:01:40;;;;;;;4.03;3.63;;;18.90;62.80;;;;;;5062293;28;20501;-70
2022/03/02 12:04:07;;;;;;;4.60;4.00;;;19.60;62.00;;;;;;5068439;28;20511;-70
2022/03/02 12:06:42;;;;;;;4.07;3.70;;;20.20;61.50;;;;;;5061920;28;20466;-69
2022/03/02 12:09:09;;;;;;;4.87;4.37;;;20.70;58.50;;;;;;5060171;28;20461;-63
2022/03/02 12:11:38;;;;;;;3.93;3.57;;;20.80;60.30;;;;;;5067623;28;20481;-63
2022/03/02 12:14:07;;;;;;;4.63;4.13;;;21.40;60.10;;;;;;5060969;28;20479;-63
2022/03/02 12:16:38;;;;;;;3.70;3.30;;;22.20;58.10;;;;;;5059993;28;20459;-63
2022/03/02 12:19:05;;;;;;;4.90;3.70;;;22.80;56.10;;;;;;5060395;28;20893;-62
2022/03/02 12:21:32;;;;;;;3.93;3.60;;;23.50;56.30;;;;;;5066243;28;20461;-63
2022/03/02 12:24:01;;;;;;;332.30;310.30;;;24.50;52.90;;;;;;5066234;28;20506;-63
2022/03/02 12:26:28;;;;;;;3.87;3.57;;;24.50;51.10;;;;;;5062237;28;20454;-63
2022/03/02 12:28:56;;;;;;;382.43;356.37;;;24.60;49.40;;;;;;5068570;28;20466;-63
2022/03/02 12:31:29;;;;;;;324.33;301.97;;;24.90;48.40;;;;;;5056612;28;20923;-63
2022/03/02 12:34:00;;;;;;;3.50;3.20;;;24.90;47.60;;;;;;5056915;28;20486;-63
2022/03/02 12:36:27;;;;;;;5.17;4.00;;;24.30;46.40;;;;;;5068466;28;20853;-62
2022/03/02 12:38:54;;;;;;;3.47;3.20;;;24.40;46.50;;;;;;5062315;28;20546;-65
2022/03/02 12:41:23;;;;;;;3.73;3.43;;;24.20;45.70;;;;;;5065437;28;21194;-63
2022/03/02 12:43:50;;;;;;;4.70;4.30;;;24.00;44.40;;;;;;5062745;28;20511;-63
2022/03/02 12:46:19;;;;;;;3.40;3.10;;;23.30;44.40;;;;;;5060898;28;20455;-63
2022/03/02 12:48:46;;;;;;;3.70;3.50;;;23.60;44.50;;;;;;5057274;28;20577;-65
2022/03/02 12:51:16;;;;;;;4.70;3.50;;;23.80;44.80;;;;;;5054760;28;20579;-64
2022/03/02 12:53:43;;;;;;;4.40;3.90;;;23.90;44.50;;;;;;5060718;28;20483;-64
2022/03/02 12:56:10;;;;;;;3.37;3.07;;;23.80;44.10;;;;;;5061170;28;20455;-70
2022/03/02 12:58:38;;;;;;;3.03;2.73;;;23.20;43.40;;;;;;5056745;28;20520;-64